SWA73 TKPK-KFLL
Flight info
| Callsign | SWA73 |
|---|---|
| Flight time | N/A |
| Altitude | 32000 |
| Route | SKB DCT GABAR Y280 ACONY Y308 ANTOX R507 GTK A555 ZQA OLAHS3 |
| Aircraft | B38M/M-SDE1FGHILORVWXY/HB1 |
Departure
| Time | 2026-04-19 22:17 |
|---|---|
| Airport | Robert L. Bradshaw International Airport (TKPK) |
Arrival
| Time | N/A |
|---|---|
| Airport | Fort Lauderdale Hollywood International Airport (KFLL) |
| Time | Latitude | Longitude | Altitude | Speed | Heading |
|---|---|---|---|---|---|
| 2026-04-19 22:00 | 17.31165 | -62.71493 | 153 ft | 0 kts | 322° |
| 2026-04-19 22:12 | 17.31171 | -62.71501 | 154 ft | 3 kts | 302° |
| 2026-04-19 22:12 | 17.31148 | -62.71540 | 156 ft | 10 kts | 225° |
| 2026-04-19 22:12 | 17.31099 | -62.71602 | 158 ft | 12 kts | 230° |
| 2026-04-19 22:13 | 17.31033 | -62.71675 | 157 ft | 15 kts | 223° |
| 2026-04-19 22:13 | 17.30970 | -62.71771 | 160 ft | 17 kts | 238° |
| 2026-04-19 22:13 | 17.30908 | -62.71893 | 163 ft | 20 kts | 246° |
| 2026-04-19 22:13 | 17.30826 | -62.72033 | 165 ft | 24 kts | 234° |
| 2026-04-19 22:14 | 17.30724 | -62.72189 | 168 ft | 26 kts | 248° |
| 2026-04-19 22:14 | 17.30707 | -62.72373 | 171 ft | 26 kts | 269° |
| 2026-04-19 22:14 | 17.30692 | -62.72544 | 175 ft | 23 kts | 245° |
| 2026-04-19 22:14 | 17.30613 | -62.72660 | 173 ft | 18 kts | 226° |
| 2026-04-19 22:15 | 17.30538 | -62.72716 | 169 ft | 10 kts | 225° |
| 2026-04-19 22:15 | 17.30545 | -62.72753 | 170 ft | 4 kts | 18° |
| 2026-04-19 22:15 | 17.30561 | -62.72742 | 171 ft | 0 kts | 38° |
| 2026-04-19 22:15 | 17.30562 | -62.72742 | 171 ft | 0 kts | 39° |
| 2026-04-19 22:16 | 17.30584 | -62.72714 | 172 ft | 26 kts | 54° |
| 2026-04-19 22:16 | 17.30841 | -62.72310 | 180 ft | 104 kts | 56° |
| 2026-04-19 22:16 | 17.31365 | -62.71487 | 169 ft | 167 kts | 58° |
| 2026-04-19 22:17 | 17.32034 | -62.70369 | 704 ft | 185 kts | 60° |
| 2026-04-19 22:17 | 17.32679 | -62.69207 | 1725 ft | 188 kts | 58° |
| 2026-04-19 22:17 | 17.33480 | -62.68083 | 2323 ft | 209 kts | 43° |
| 2026-04-19 22:17 | 17.34893 | -62.67473 | 2837 ft | 239 kts | 4° |
| 2026-04-19 22:18 | 17.36548 | -62.67948 | 3438 ft | 266 kts | 327° |
| 2026-04-19 22:18 | 17.37733 | -62.69449 | 4308 ft | 279 kts | 292° |
| 2026-04-19 22:18 | 17.38039 | -62.71445 | 5293 ft | 283 kts | 270° |
| 2026-04-19 22:18 | 17.37925 | -62.73495 | 6186 ft | 289 kts | 265° |
| 2026-04-19 22:19 | 17.37730 | -62.75605 | 7132 ft | 292 kts | 264° |
| 2026-04-19 22:19 | 17.37524 | -62.77729 | 8056 ft | 295 kts | 264° |
| 2026-04-19 22:19 | 17.37316 | -62.79855 | 8943 ft | 298 kts | 264° |
| 2026-04-19 22:19 | 17.37104 | -62.82019 | 9820 ft | 301 kts | 264° |
| 2026-04-19 22:20 | 17.36889 | -62.84209 | 10487 ft | 311 kts | 264° |
| 2026-04-19 22:20 | 17.36660 | -62.86552 | 10671 ft | 338 kts | 264° |
| 2026-04-19 22:20 | 17.36410 | -62.89098 | 10822 ft | 363 kts | 264° |
| 2026-04-19 22:20 | 17.36150 | -62.91733 | 11404 ft | 372 kts | 264° |
| 2026-04-19 22:21 | 17.35882 | -62.94450 | 12082 ft | 377 kts | 264° |
| 2026-04-19 22:21 | 17.35615 | -62.97218 | 12760 ft | 382 kts | 266° |
| 2026-04-19 22:21 | 17.35663 | -63.00016 | 13435 ft | 386 kts | 277° |
| 2026-04-19 22:21 | 17.36073 | -63.02785 | 14116 ft | 389 kts | 282° |
| 2026-04-19 22:22 | 17.36641 | -63.05564 | 14750 ft | 394 kts | 284° |
| 2026-04-19 22:22 | 17.37261 | -63.08360 | 15383 ft | 398 kts | 284° |
| 2026-04-19 22:22 | 17.37898 | -63.11180 | 16008 ft | 402 kts | 284° |
| 2026-04-19 22:22 | 17.38552 | -63.14057 | 16625 ft | 406 kts | 284° |
| 2026-04-19 22:23 | 17.39201 | -63.16909 | 17213 ft | 409 kts | 285° |
| 2026-04-19 22:23 | 17.39866 | -63.19827 | 17798 ft | 413 kts | 285° |
| 2026-04-19 22:23 | 17.40536 | -63.22772 | 18369 ft | 416 kts | 285° |
| 2026-04-19 22:23 | 17.41208 | -63.25721 | 18925 ft | 420 kts | 285° |
| 2026-04-19 22:24 | 17.41891 | -63.28721 | 19484 ft | 423 kts | 285° |
| 2026-04-19 22:24 | 17.42574 | -63.31721 | 20024 ft | 426 kts | 285° |
| 2026-04-19 22:24 | 17.43261 | -63.34740 | 20555 ft | 430 kts | 285° |
| 2026-04-19 22:24 | 17.43955 | -63.37790 | 21064 ft | 433 kts | 285° |
| 2026-04-19 22:25 | 17.44660 | -63.40888 | 21571 ft | 436 kts | 285° |
| 2026-04-19 22:25 | 17.45357 | -63.43959 | 22049 ft | 439 kts | 285° |
| 2026-04-19 22:25 | 17.46063 | -63.47068 | 22529 ft | 441 kts | 286° |
| 2026-04-19 22:25 | 17.46775 | -63.50209 | 22991 ft | 444 kts | 286° |
| 2026-04-19 22:26 | 17.47524 | -63.53373 | 23445 ft | 446 kts | 290° |
| 2026-04-19 22:26 | 17.48727 | -63.56338 | 23874 ft | 444 kts | 301° |
| 2026-04-19 22:26 | 17.50260 | -63.59132 | 24366 ft | 444 kts | 304° |
| 2026-04-19 22:26 | 17.51868 | -63.61935 | 24734 ft | 448 kts | 304° |
| 2026-04-19 22:27 | 17.53487 | -63.64747 | 25216 ft | 449 kts | 304° |
| 2026-04-19 22:27 | 17.55091 | -63.67532 | 25613 ft | 452 kts | 304° |
| 2026-04-19 22:27 | 17.56721 | -63.70363 | 26028 ft | 454 kts | 304° |
| 2026-04-19 22:27 | 17.58354 | -63.73201 | 26428 ft | 456 kts | 304° |
| 2026-04-19 22:28 | 17.59989 | -63.76042 | 26809 ft | 458 kts | 304° |
| 2026-04-19 22:28 | 17.61630 | -63.78896 | 27182 ft | 460 kts | 304° |
| 2026-04-19 22:28 | 17.63286 | -63.81776 | 27553 ft | 461 kts | 304° |
| 2026-04-19 22:28 | 17.64942 | -63.84660 | 27907 ft | 463 kts | 304° |
| 2026-04-19 22:29 | 17.66602 | -63.87549 | 28256 ft | 465 kts | 304° |
| 2026-04-19 22:29 | 17.68288 | -63.90487 | 28597 ft | 467 kts | 304° |
| 2026-04-19 22:29 | 17.69950 | -63.93385 | 28942 ft | 469 kts | 305° |
| 2026-04-19 22:29 | 17.71636 | -63.96325 | 29359 ft | 468 kts | 305° |
| 2026-04-19 22:30 | 17.73296 | -63.99221 | 29807 ft | 467 kts | 305° |
| 2026-04-19 22:30 | 17.74967 | -64.02139 | 30261 ft | 465 kts | 305° |
| 2026-04-19 22:30 | 17.76633 | -64.05051 | 30721 ft | 463 kts | 305° |
| 2026-04-19 22:30 | 17.78282 | -64.07934 | 31168 ft | 461 kts | 305° |
| 2026-04-19 22:31 | 17.79911 | -64.10782 | 31604 ft | 459 kts | 305° |
| 2026-04-19 22:31 | 17.81548 | -64.13648 | 31978 ft | 458 kts | 305° |
| 2026-04-19 22:31 | 17.83198 | -64.16532 | 32024 ft | 462 kts | 305° |
| 2026-04-19 22:32 | 17.86518 | -64.22341 | 32020 ft | 463 kts | 305° |
| 2026-04-19 22:32 | 17.89825 | -64.28138 | 32020 ft | 462 kts | 305° |
| 2026-04-19 22:33 | 17.93103 | -64.33885 | 32018 ft | 462 kts | 305° |
| 2026-04-19 22:33 | 17.96416 | -64.39700 | 32020 ft | 462 kts | 305° |
| 2026-04-19 22:34 | 17.99712 | -64.45491 | 32022 ft | 462 kts | 305° |
| 2026-04-19 22:34 | 18.02995 | -64.51264 | 32024 ft | 462 kts | 305° |
| 2026-04-19 22:35 | 18.06278 | -64.57041 | 32025 ft | 462 kts | 305° |
| 2026-04-19 22:35 | 18.09592 | -64.62879 | 32025 ft | 462 kts | 305° |
| 2026-04-19 22:36 | 18.12880 | -64.68677 | 32023 ft | 463 kts | 305° |
| 2026-04-19 22:36 | 18.16148 | -64.74445 | 32020 ft | 462 kts | 305° |
| 2026-04-19 22:37 | 18.19436 | -64.80252 | 32018 ft | 462 kts | 305° |
| 2026-04-19 22:37 | 18.22721 | -64.86060 | 32018 ft | 462 kts | 304° |
| 2026-04-19 22:38 | 18.25983 | -64.91832 | 32018 ft | 462 kts | 304° |
| 2026-04-19 22:38 | 18.29276 | -64.97665 | 32018 ft | 462 kts | 303° |
| 2026-04-19 22:39 | 18.32538 | -65.03448 | 32018 ft | 463 kts | 303° |
| 2026-04-19 22:39 | 18.35830 | -65.09289 | 32018 ft | 463 kts | 303° |
| 2026-04-19 22:40 | 18.39095 | -65.15088 | 32018 ft | 463 kts | 303° |
| 2026-04-19 22:40 | 18.42374 | -65.20916 | 32018 ft | 463 kts | 303° |
| 2026-04-19 22:41 | 18.45644 | -65.26735 | 32018 ft | 463 kts | 303° |
| 2026-04-19 22:41 | 18.48922 | -65.32573 | 32018 ft | 463 kts | 303° |
| 2026-04-19 22:42 | 18.52172 | -65.38366 | 32018 ft | 463 kts | 303° |
| 2026-04-19 22:42 | 18.55459 | -65.44231 | 32018 ft | 463 kts | 303° |
| 2026-04-19 22:43 | 18.58726 | -65.50066 | 32018 ft | 463 kts | 303° |
| 2026-04-19 22:43 | 18.61991 | -65.55902 | 32018 ft | 463 kts | 303° |
| 2026-04-19 22:44 | 18.65244 | -65.61721 | 32018 ft | 463 kts | 303° |
| 2026-04-19 22:44 | 18.68497 | -65.67548 | 32018 ft | 463 kts | 303° |
| 2026-04-19 22:45 | 18.71777 | -65.73428 | 32018 ft | 463 kts | 303° |
| 2026-04-19 22:45 | 18.75014 | -65.79236 | 32018 ft | 463 kts | 303° |
| 2026-04-19 22:46 | 18.78279 | -65.85101 | 32018 ft | 463 kts | 303° |
| 2026-04-19 22:46 | 18.81540 | -65.90964 | 32018 ft | 463 kts | 303° |
| 2026-04-19 22:47 | 18.84800 | -65.96831 | 32018 ft | 463 kts | 303° |
| 2026-04-19 22:47 | 18.88038 | -66.02663 | 32018 ft | 463 kts | 303° |
| 2026-04-19 22:48 | 18.91289 | -66.08525 | 32018 ft | 463 kts | 303° |
| 2026-04-19 22:48 | 18.94538 | -66.14387 | 32018 ft | 464 kts | 303° |
| 2026-04-19 22:49 | 18.97797 | -66.20274 | 32018 ft | 465 kts | 303° |
| 2026-04-19 22:49 | 19.01073 | -66.26197 | 32018 ft | 466 kts | 303° |
| 2026-04-19 22:50 | 19.04345 | -66.32118 | 32018 ft | 467 kts | 303° |
| 2026-04-19 22:50 | 19.07617 | -66.38045 | 32018 ft | 468 kts | 303° |
| 2026-04-19 22:51 | 19.10878 | -66.43960 | 32018 ft | 467 kts | 303° |
| 2026-04-19 22:51 | 19.15796 | -66.52888 | 32019 ft | 467 kts | 303° |
| 2026-04-19 22:52 | 19.19061 | -66.58823 | 32021 ft | 467 kts | 303° |
| 2026-04-19 22:52 | 19.22321 | -66.64756 | 32025 ft | 468 kts | 303° |
| 2026-04-19 22:53 | 19.25626 | -66.70772 | 32026 ft | 479 kts | 303° |
| 2026-04-19 22:53 | 19.28956 | -66.76841 | 32026 ft | 480 kts | 303° |
| 2026-04-19 22:54 | 19.32294 | -66.82934 | 32027 ft | 479 kts | 303° |
| 2026-04-19 22:54 | 19.35634 | -66.89037 | 32027 ft | 479 kts | 303° |
| 2026-04-19 22:55 | 19.38965 | -66.95128 | 32027 ft | 479 kts | 303° |
| 2026-04-19 22:55 | 19.42291 | -67.01218 | 32027 ft | 479 kts | 303° |
| 2026-04-19 22:56 | 19.45610 | -67.07299 | 32027 ft | 479 kts | 302° |
| 2026-04-19 22:56 | 19.48916 | -67.13363 | 32027 ft | 479 kts | 302° |
| 2026-04-19 22:57 | 19.52252 | -67.19489 | 32027 ft | 479 kts | 302° |
| 2026-04-19 22:57 | 19.55568 | -67.25586 | 32027 ft | 479 kts | 302° |
| 2026-04-19 22:58 | 19.58874 | -67.31670 | 32027 ft | 479 kts | 302° |
| 2026-04-19 22:58 | 19.62201 | -67.37797 | 32027 ft | 479 kts | 302° |
| 2026-04-19 22:59 | 19.65499 | -67.43879 | 32027 ft | 479 kts | 302° |
| 2026-04-19 22:59 | 19.68804 | -67.49979 | 32026 ft | 479 kts | 302° |
| 2026-04-19 23:00 | 19.72107 | -67.56083 | 32024 ft | 479 kts | 302° |
| 2026-04-19 23:00 | 19.75415 | -67.62202 | 32022 ft | 479 kts | 302° |
| 2026-04-19 23:01 | 19.78720 | -67.68321 | 32020 ft | 479 kts | 301° |
| 2026-04-19 23:01 | 19.82029 | -67.74455 | 32020 ft | 479 kts | 301° |
| 2026-04-19 23:02 | 19.85336 | -67.80592 | 32020 ft | 479 kts | 301° |
| 2026-04-19 23:02 | 19.88641 | -67.86730 | 32020 ft | 479 kts | 301° |
| 2026-04-19 23:03 | 19.91926 | -67.92838 | 32020 ft | 479 kts | 301° |
| 2026-04-19 23:03 | 19.95221 | -67.98972 | 32020 ft | 479 kts | 301° |
| 2026-04-19 23:04 | 19.98523 | -68.05125 | 32020 ft | 479 kts | 301° |
| 2026-04-19 23:04 | 20.01803 | -68.11243 | 32020 ft | 479 kts | 301° |
| 2026-04-19 23:05 | 20.05091 | -68.17384 | 32020 ft | 479 kts | 301° |
| 2026-04-19 23:05 | 20.08385 | -68.23541 | 32020 ft | 479 kts | 301° |
| 2026-04-19 23:06 | 20.11677 | -68.29700 | 32020 ft | 479 kts | 301° |
| 2026-04-19 23:06 | 20.14962 | -68.35854 | 32020 ft | 479 kts | 301° |
| 2026-04-19 23:07 | 20.18224 | -68.41971 | 32014 ft | 479 kts | 301° |
| 2026-04-19 23:07 | 20.21516 | -68.48151 | 31994 ft | 479 kts | 301° |
| 2026-04-19 23:08 | 20.24793 | -68.54309 | 31979 ft | 479 kts | 301° |
| 2026-04-19 23:08 | 20.28114 | -68.60447 | 31969 ft | 479 kts | 302° |
| 2026-04-19 23:09 | 20.31450 | -68.66544 | 31966 ft | 479 kts | 302° |
| 2026-04-19 23:09 | 20.34794 | -68.72665 | 31966 ft | 479 kts | 302° |
| 2026-04-19 23:10 | 20.38130 | -68.78779 | 31966 ft | 479 kts | 302° |
| 2026-04-19 23:10 | 20.41463 | -68.84895 | 31966 ft | 479 kts | 302° |
| 2026-04-19 23:11 | 20.44814 | -68.91053 | 31966 ft | 479 kts | 302° |
| 2026-04-19 23:11 | 20.48131 | -68.97155 | 31966 ft | 477 kts | 302° |
| 2026-04-19 23:12 | 20.51443 | -69.03256 | 31966 ft | 475 kts | 302° |
| 2026-04-19 23:12 | 20.54717 | -69.09292 | 31966 ft | 473 kts | 302° |
| 2026-04-19 23:13 | 20.58000 | -69.15350 | 31965 ft | 471 kts | 302° |
| 2026-04-19 23:13 | 20.61278 | -69.21406 | 31966 ft | 471 kts | 302° |
| 2026-04-19 23:14 | 20.64540 | -69.27438 | 31966 ft | 472 kts | 302° |
| 2026-04-19 23:14 | 20.67811 | -69.33495 | 31966 ft | 472 kts | 302° |
| 2026-04-19 23:15 | 20.71078 | -69.39551 | 31968 ft | 472 kts | 302° |
| 2026-04-19 23:15 | 20.74335 | -69.45593 | 31975 ft | 472 kts | 302° |
| 2026-04-19 23:16 | 20.77606 | -69.51669 | 31982 ft | 472 kts | 302° |
| 2026-04-19 23:16 | 20.80852 | -69.57706 | 31988 ft | 472 kts | 302° |
| 2026-04-19 23:17 | 20.84119 | -69.63787 | 31993 ft | 472 kts | 302° |
| 2026-04-19 23:17 | 20.87369 | -69.69844 | 31993 ft | 472 kts | 301° |
| 2026-04-19 23:18 | 20.90581 | -69.75980 | 31992 ft | 473 kts | 298° |
| 2026-04-19 23:18 | 20.93398 | -69.82309 | 31993 ft | 473 kts | 297° |
| 2026-04-19 23:19 | 20.96185 | -69.88663 | 31993 ft | 473 kts | 297° |
| 2026-04-19 23:19 | 20.98970 | -69.95010 | 31993 ft | 472 kts | 297° |
| 2026-04-19 23:20 | 21.01735 | -70.01312 | 31993 ft | 471 kts | 297° |
| 2026-04-19 23:20 | 21.04513 | -70.07645 | 31993 ft | 470 kts | 297° |
| 2026-04-19 23:21 | 21.07283 | -70.13970 | 31993 ft | 469 kts | 297° |
| 2026-04-19 23:21 | 21.10013 | -70.20275 | 31992 ft | 468 kts | 295° |
| 2026-04-19 23:22 | 21.12428 | -70.26704 | 31993 ft | 468 kts | 293° |
| 2026-04-19 23:22 | 21.14808 | -70.33192 | 31993 ft | 468 kts | 293° |
| 2026-04-19 23:23 | 21.17194 | -70.39688 | 31993 ft | 468 kts | 293° |
| 2026-04-19 23:23 | 21.19561 | -70.46130 | 31993 ft | 468 kts | 293° |
| 2026-04-19 23:24 | 21.21939 | -70.52607 | 31993 ft | 468 kts | 293° |
| 2026-04-19 23:24 | 21.24313 | -70.59079 | 31993 ft | 468 kts | 293° |
| 2026-04-19 23:25 | 21.26679 | -70.65567 | 31993 ft | 468 kts | 292° |
| 2026-04-19 23:25 | 21.29054 | -70.72083 | 31993 ft | 468 kts | 293° |
| 2026-04-19 23:26 | 21.31405 | -70.78532 | 31993 ft | 468 kts | 293° |
| 2026-04-19 23:26 | 21.33776 | -70.85033 | 31993 ft | 467 kts | 292° |
| 2026-04-19 23:27 | 21.36130 | -70.91496 | 31992 ft | 465 kts | 292° |
| 2026-04-19 23:27 | 21.38510 | -70.97925 | 31993 ft | 466 kts | 291° |
| 2026-04-19 23:28 | 21.40913 | -71.04429 | 31993 ft | 469 kts | 290° |
| 2026-04-19 23:28 | 21.43307 | -71.10906 | 31991 ft | 471 kts | 294° |
| 2026-04-19 23:29 | 21.46285 | -71.17136 | 31993 ft | 471 kts | 297° |
| 2026-04-19 23:29 | 21.49460 | -71.23315 | 31993 ft | 471 kts | 298° |
| 2026-04-19 23:30 | 21.52644 | -71.29399 | 31993 ft | 471 kts | 298° |
| 2026-04-19 23:30 | 21.55875 | -71.35525 | 31993 ft | 470 kts | 298° |
| 2026-04-19 23:31 | 21.59101 | -71.41623 | 31993 ft | 471 kts | 298° |
| 2026-04-19 23:31 | 21.62312 | -71.47684 | 31993 ft | 470 kts | 298° |
| 2026-04-19 23:32 | 21.65540 | -71.53778 | 31993 ft | 471 kts | 298° |
| 2026-04-19 23:32 | 21.68782 | -71.59899 | 31993 ft | 471 kts | 298° |
| 2026-04-19 23:33 | 21.72009 | -71.66003 | 31993 ft | 471 kts | 298° |
| 2026-04-19 23:33 | 21.75218 | -71.72108 | 31993 ft | 471 kts | 298° |
| 2026-04-19 23:34 | 21.78428 | -71.78205 | 31993 ft | 471 kts | 298° |
| 2026-04-19 23:34 | 21.81642 | -71.84307 | 31993 ft | 471 kts | 298° |
| 2026-04-19 23:35 | 21.84884 | -71.90462 | 31993 ft | 471 kts | 298° |
| 2026-04-19 23:35 | 21.88093 | -71.96562 | 31993 ft | 470 kts | 298° |
| 2026-04-19 23:36 | 21.91309 | -72.02679 | 31993 ft | 471 kts | 298° |
| 2026-04-19 23:36 | 21.94516 | -72.08785 | 31993 ft | 471 kts | 298° |
| 2026-04-19 23:37 | 21.97715 | -72.14883 | 31993 ft | 471 kts | 298° |
| 2026-04-19 23:37 | 22.00929 | -72.21051 | 31993 ft | 470 kts | 298° |
| 2026-04-19 23:38 | 22.04119 | -72.27172 | 31993 ft | 470 kts | 298° |
| 2026-04-19 23:38 | 22.07303 | -72.33282 | 31993 ft | 471 kts | 298° |
| 2026-04-19 23:39 | 22.10505 | -72.39426 | 31993 ft | 471 kts | 298° |
| 2026-04-19 23:39 | 22.13699 | -72.45561 | 31993 ft | 471 kts | 297° |
| 2026-04-19 23:40 | 22.16725 | -72.51799 | 31993 ft | 470 kts | 296° |
| 2026-04-19 23:40 | 22.19717 | -72.58055 | 31993 ft | 470 kts | 296° |
| 2026-04-19 23:41 | 22.22725 | -72.64326 | 31993 ft | 470 kts | 296° |
| 2026-04-19 23:41 | 22.25807 | -72.70550 | 31993 ft | 471 kts | 298° |
| 2026-04-19 23:42 | 22.29074 | -72.76649 | 31993 ft | 471 kts | 299° |
| 2026-04-19 23:42 | 22.32322 | -72.82722 | 31993 ft | 471 kts | 298° |
| 2026-04-19 23:43 | 22.35596 | -72.88863 | 31993 ft | 471 kts | 298° |
| 2026-04-19 23:43 | 22.38833 | -72.94952 | 31993 ft | 471 kts | 298° |
| 2026-04-19 23:44 | 22.42088 | -73.01093 | 31993 ft | 470 kts | 298° |
| 2026-04-19 23:44 | 22.45309 | -73.07198 | 31993 ft | 467 kts | 298° |
| 2026-04-19 23:45 | 22.48499 | -73.13244 | 31993 ft | 465 kts | 298° |
| 2026-04-19 23:45 | 22.51687 | -73.19289 | 31993 ft | 463 kts | 299° |
| 2026-04-19 23:46 | 22.54852 | -73.25292 | 31993 ft | 462 kts | 299° |
| 2026-04-19 23:46 | 22.58029 | -73.31325 | 31993 ft | 462 kts | 299° |
| 2026-04-19 23:47 | 22.61202 | -73.37355 | 31993 ft | 462 kts | 299° |
| 2026-04-19 23:47 | 22.64380 | -73.43402 | 31993 ft | 462 kts | 299° |
| 2026-04-19 23:48 | 22.67536 | -73.49416 | 32000 ft | 462 kts | 299° |
| 2026-04-19 23:48 | 22.70702 | -73.55452 | 32018 ft | 462 kts | 299° |
| 2026-04-19 23:49 | 22.73860 | -73.61483 | 32041 ft | 462 kts | 299° |
| 2026-04-19 23:49 | 22.77020 | -73.67524 | 32059 ft | 462 kts | 298° |
| 2026-04-19 23:50 | 22.80185 | -73.73585 | 32064 ft | 462 kts | 298° |
| 2026-04-19 23:50 | 22.83336 | -73.79624 | 32064 ft | 462 kts | 298° |
| 2026-04-19 23:51 | 22.86483 | -73.85661 | 32064 ft | 462 kts | 298° |
| 2026-04-19 23:51 | 22.89642 | -73.91729 | 32064 ft | 462 kts | 298° |
| 2026-04-19 23:52 | 22.92768 | -73.97741 | 32064 ft | 462 kts | 298° |
| 2026-04-19 23:52 | 22.95911 | -74.03792 | 32064 ft | 462 kts | 298° |
| 2026-04-19 23:53 | 22.99058 | -74.09856 | 32064 ft | 462 kts | 298° |
| 2026-04-19 23:53 | 23.02209 | -74.15939 | 32063 ft | 462 kts | 298° |
| 2026-04-19 23:54 | 23.05340 | -74.21988 | 32064 ft | 463 kts | 297° |
| 2026-04-19 23:54 | 23.08482 | -74.28066 | 32063 ft | 463 kts | 297° |
| 2026-04-19 23:55 | 23.11624 | -74.34152 | 32064 ft | 463 kts | 297° |
| 2026-04-19 23:55 | 23.14765 | -74.40250 | 32064 ft | 463 kts | 297° |
| 2026-04-19 23:56 | 23.17837 | -74.46384 | 32064 ft | 462 kts | 297° |
| 2026-04-19 23:56 | 23.20910 | -74.52502 | 32064 ft | 463 kts | 297° |
| 2026-04-19 23:57 | 23.23986 | -74.58600 | 32064 ft | 463 kts | 297° |
| 2026-04-19 23:57 | 23.27072 | -74.64707 | 32064 ft | 463 kts | 297° |
| 2026-04-19 23:58 | 23.30174 | -74.70846 | 32063 ft | 463 kts | 297° |
| 2026-04-19 23:58 | 23.33265 | -74.76964 | 32064 ft | 463 kts | 297° |
| 2026-04-19 23:59 | 23.36339 | -74.83051 | 32064 ft | 463 kts | 297° |
| 2026-04-19 23:59 | 23.39441 | -74.89201 | 32064 ft | 463 kts | 297° |
| 2026-04-20 00:00 | 23.42518 | -74.95306 | 32064 ft | 463 kts | 297° |
| 2026-04-20 00:00 | 23.45622 | -75.01470 | 32064 ft | 464 kts | 297° |
| 2026-04-20 00:01 | 23.48710 | -75.07613 | 32064 ft | 465 kts | 297° |
| 2026-04-20 00:02 | 23.53360 | -75.16874 | 32064 ft | 466 kts | 297° |
| 2026-04-20 00:02 | 23.56466 | -75.23055 | 32063 ft | 466 kts | 298° |
| 2026-04-20 00:03 | 23.60022 | -75.28940 | 32064 ft | 467 kts | 303° |
| 2026-04-20 00:03 | 23.63799 | -75.34695 | 32064 ft | 467 kts | 304° |
| 2026-04-20 00:04 | 23.67617 | -75.40426 | 32064 ft | 467 kts | 304° |
| 2026-04-20 00:04 | 23.71440 | -75.46132 | 32063 ft | 468 kts | 304° |
| 2026-04-20 00:05 | 23.75278 | -75.51845 | 32063 ft | 468 kts | 304° |
| 2026-04-20 00:05 | 23.79099 | -75.57528 | 32063 ft | 468 kts | 304° |
| 2026-04-20 00:06 | 23.82933 | -75.63230 | 32063 ft | 468 kts | 305° |
| 2026-04-20 00:06 | 23.86776 | -75.68949 | 32064 ft | 468 kts | 304° |
| 2026-04-20 00:07 | 23.90612 | -75.74663 | 32064 ft | 467 kts | 304° |
| 2026-04-20 00:07 | 23.94448 | -75.80382 | 32064 ft | 467 kts | 304° |
| 2026-04-20 00:08 | 23.98282 | -75.86104 | 32064 ft | 467 kts | 304° |
| 2026-04-20 00:08 | 24.02119 | -75.91835 | 32064 ft | 467 kts | 304° |
| 2026-04-20 00:09 | 24.05935 | -75.97550 | 32064 ft | 467 kts | 304° |
| 2026-04-20 00:09 | 24.09738 | -76.03287 | 32064 ft | 467 kts | 304° |
| 2026-04-20 00:10 | 24.13559 | -76.09042 | 32064 ft | 467 kts | 304° |
| 2026-04-20 00:10 | 24.17366 | -76.14771 | 32066 ft | 467 kts | 304° |
| 2026-04-20 00:11 | 24.21185 | -76.20517 | 32069 ft | 467 kts | 304° |
| 2026-04-20 00:11 | 24.24988 | -76.26241 | 32071 ft | 467 kts | 304° |
| 2026-04-20 00:12 | 24.28805 | -76.32002 | 32073 ft | 467 kts | 304° |
| 2026-04-20 00:12 | 24.32621 | -76.37776 | 32073 ft | 467 kts | 304° |
| 2026-04-20 00:13 | 24.36413 | -76.43511 | 32073 ft | 467 kts | 304° |
| 2026-04-20 00:13 | 24.40220 | -76.49271 | 32073 ft | 467 kts | 304° |
| 2026-04-20 00:14 | 24.44033 | -76.55043 | 32073 ft | 467 kts | 304° |
| 2026-04-20 00:14 | 24.47815 | -76.60775 | 32073 ft | 467 kts | 304° |
| 2026-04-20 00:15 | 24.51624 | -76.66552 | 32073 ft | 467 kts | 304° |
| 2026-04-20 00:15 | 24.55432 | -76.72337 | 32073 ft | 467 kts | 304° |
| 2026-04-20 00:16 | 24.59213 | -76.78085 | 32073 ft | 467 kts | 304° |
| 2026-04-20 00:16 | 24.63004 | -76.83857 | 32073 ft | 467 kts | 304° |
| 2026-04-20 00:17 | 24.66771 | -76.89620 | 32073 ft | 465 kts | 303° |
| 2026-04-20 00:17 | 24.70526 | -76.95380 | 32073 ft | 463 kts | 303° |
| 2026-04-20 00:18 | 24.74260 | -77.01102 | 32073 ft | 462 kts | 303° |
| 2026-04-20 00:18 | 24.77996 | -77.06834 | 32073 ft | 461 kts | 303° |
| 2026-04-20 00:19 | 24.81715 | -77.12542 | 32073 ft | 461 kts | 303° |
| 2026-04-20 00:19 | 24.85456 | -77.18284 | 32073 ft | 461 kts | 303° |
| 2026-04-20 00:20 | 24.89166 | -77.23981 | 32073 ft | 461 kts | 303° |
| 2026-04-20 00:20 | 24.92883 | -77.29695 | 32073 ft | 461 kts | 303° |
| 2026-04-20 00:21 | 24.96624 | -77.35451 | 32073 ft | 461 kts | 303° |
| 2026-04-20 00:21 | 25.00324 | -77.41174 | 32072 ft | 459 kts | 301° |
| 2026-04-20 00:22 | 25.03457 | -77.47219 | 32073 ft | 455 kts | 295° |
| 2026-04-20 00:22 | 25.06271 | -77.53432 | 32073 ft | 454 kts | 294° |
| 2026-04-20 00:23 | 25.09045 | -77.59666 | 32072 ft | 453 kts | 293° |
| 2026-04-20 00:23 | 25.11804 | -77.65923 | 32073 ft | 452 kts | 292° |
| 2026-04-20 00:23 | 25.13157 | -77.69005 | 31906 ft | 448 kts | 292° |
| 2026-04-20 00:24 | 25.14495 | -77.72057 | 31324 ft | 437 kts | 292° |
| 2026-04-20 00:24 | 25.15802 | -77.75046 | 30382 ft | 434 kts | 292° |
| 2026-04-20 00:24 | 25.17097 | -77.78017 | 29218 ft | 435 kts | 293° |
| 2026-04-20 00:24 | 25.18395 | -77.81001 | 27943 ft | 439 kts | 293° |